Granite Bay, California
Current Conditions -  °F | °C
As of 3:46 PM on Saturday 25 Oct 2014 (Local Time) from KMHR Reporting Station
Broken Clouds Broken Clouds  
Wind Chill: 68°   Ceiling: 4600
Heat Index: 68°   Visibility: 10mi
Dew Point: 54°   Wind: 13mph
Humidity: 60%   Direction: 140°SE
Pressure: 30.05"   Gusts: NA
Location:  38.74°N, 121.18°W
Report Text: KMHR 252246Z 14011KT 10SM SCT037 BKN046 20/12 A3005
Loading
Personal Weather Stations






























Interactive Weather Map
Tropical Storm Tracking
New forecast layout! Learn more

10-Day Weather Forecast

Advertisements
Track Severe Weather on mobile